Time;durP1;ratioP1;P1;durP2;ratioP2;P2;SDS_P1;SDS_P2;PMS_P1;PMS_P2;Temp;Humidity;BMP_temperature;BMP_pressure;BME280_temperature;BME280_humidity;BME280_pressure;Samples;Min_cycle;Max_cycle;Signal;HPM_P1;HPM_P2
2021/12/17 00:02:11;;;;;;;;;;;;;;;3.33;100.00;102911.91;5036528;28;1284;-76
2021/12/17 00:16:38;;;;;;;;;;;;;;;3.27;100.00;102922.72;5031416;28;2106;-77
2021/12/17 00:19:19;;;;;;;;;;;;;;;3.22;100.00;102921.03;5003233;28;1339;-77
2021/12/17 00:44:16;;;;;;;;;;;;;;;2.96;100.00;102898.16;5015783;28;1160;-72
2021/12/17 00:49:29;;;;;;;;;;;;;;;2.97;100.00;102902.63;5015551;28;1112;-74
2021/12/17 00:51:58;;;;;;;;;;;;;;;2.91;100.00;102908.06;4998881;28;1423;-75
2021/12/17 00:54:32;;;;;;;;;;;;;;;2.91;100.00;102908.94;4996136;28;1385;-75
2021/12/17 00:56:59;;;;;;;;;;;;;;;2.90;100.00;102919.72;4996237;28;1329;-74
2021/12/17 00:59:26;;;;;;;;;;;;;;;2.89;100.00;102921.50;4995528;28;1326;-74
2021/12/17 01:01:54;;;;;;;;;;;;;;;2.95;100.00;102917.84;5013173;28;1434;-74
2021/12/17 01:04:20;;;;;;;;;;;;;;;2.97;100.00;102918.72;5032214;28;1326;-74
2021/12/17 01:06:48;;;;;;;;;;;;;;;2.99;100.00;102920.47;5015511;28;1975;-75
2021/12/17 01:09:17;;;;;;;;;;;;;;;2.99;100.00;102911.53;5015620;28;1353;-75
2021/12/17 01:11:44;;;;;;;;;;;;;;;3.00;100.00;102916.88;4997265;28;1438;-77
2021/12/17 01:14:26;;;;;;;;;;;;;;;3.03;100.00;102912.38;4995937;28;1116;-76
2021/12/17 01:16:56;;;;;;;;;;;;;;;3.03;100.00;102907.88;5011967;28;1307;-77
2021/12/17 01:20:06;;;;;;;;;;;;;;;2.98;100.00;102918.69;4996451;28;1334;-76
2021/12/17 01:25:36;;;;;;;;;;;;;;;2.96;100.00;102922.31;5014896;28;1246;-76
2021/12/17 01:37:37;;;;;;;;;;;;;;;3.20;100.00;102910.31;5028303;28;1325;-74
2021/12/17 01:42:44;;;;;;;;;;;;;;;3.36;100.00;102908.28;4949090;28;1231;-75
2021/12/17 01:45:11;;;;;;;;;;;;;;;3.38;100.00;102914.53;5011273;28;1133;-76
2021/12/17 01:47:37;;;;;;;;;;;;;;;3.43;100.00;102915.31;5022241;28;1915;-76
2021/12/17 01:55:51;;;;;;;;;;;;;;;3.44;100.00;102895.63;5015134;28;1093;-75
2021/12/17 02:01:05;;;;;;;;;;;;;;;3.43;100.00;102895.66;4994975;28;1213;-75
2021/12/17 02:03:32;;;;;;;;;;;;;;;3.40;100.00;102907.31;4995287;28;1322;-76
2021/12/17 02:05:59;;;;;;;;;;;;;;;3.42;100.00;102905.50;4994986;28;1306;-75
2021/12/17 02:08:26;;;;;;;;;;;;;;;3.43;100.00;102909.06;5014537;28;1914;-75
2021/12/17 02:22:28;;;;;;;;;;;;;;;3.41;100.00;102909.09;5014339;28;1191;-75
2021/12/17 02:30:36;;;;;;;;;;;;;;;3.43;100.00;102909.06;4994903;28;1360;-76
2021/12/17 02:33:03;;;;;;;;;;;;;;;3.43;100.00;102901.00;5011326;28;843;-76
2021/12/17 02:35:34;;;;;;;;;;;;;;;3.42;100.00;102897.47;4994638;28;1171;-76
2021/12/17 02:38:03;;;;;;;;;;;;;;;3.42;100.00;102899.25;5031548;28;1540;-76
2021/12/17 02:46:26;;;;;;;;;;;;;;;3.40;100.00;102885.84;5017853;28;1910;-76
2021/12/17 02:48:54;;;;;;;;;;;;;;;3.40;100.00;102880.47;5018700;28;1330;-76
2021/12/17 02:51:22;;;;;;;;;;;;;;;3.42;100.00;102875.97;5018192;28;1097;-77
2021/12/17 02:53:51;;;;;;;;;;;;;;;3.43;100.00;102875.03;5018570;28;1231;-77
2021/12/17 02:56:17;;;;;;;;;;;;;;;3.41;100.00;102884.03;5010074;28;1510;-76
2021/12/17 02:58:44;;;;;;;;;;;;;;;3.38;100.00;102881.41;4998563;28;1160;-76
2021/12/17 03:01:12;;;;;;;;;;;;;;;3.37;100.00;102883.22;4998294;28;1331;-76
2021/12/17 03:03:40;;;;;;;;;;;;;;;3.39;100.00;102886.75;4998744;28;1307;-76
2021/12/17 03:06:06;;;;;;;;;;;;;;;3.41;100.00;102884.94;5005204;28;1465;-77
2021/12/17 03:08:33;;;;;;;;;;;;;;;3.43;100.00;102891.16;5034668;28;2044;-76
2021/12/17 03:11:01;;;;;;;;;;;;;;;3.43;100.00;102891.16;5017743;28;1180;-76
2021/12/17 03:13:31;;;;;;;;;;;;;;;3.47;100.00;102892.00;5017817;28;1190;-77
2021/12/17 03:16:02;;;;;;;;;;;;;;;3.46;100.00;102888.44;5009634;28;1505;-76
2021/12/17 03:18:55;;;;;;;;;;;;;;;3.45;100.00;102886.66;4997961;28;1125;-75
2021/12/17 03:24:06;;;;;;;;;;;;;;;3.49;100.00;102888.38;4997934;28;1162;-76
2021/12/17 03:26:34;;;;;;;;;;;;;;;3.52;100.00;102884.75;4998288;28;1981;-76
2021/12/17 03:29:03;;;;;;;;;;;;;;;3.53;100.00;102881.16;4998209;28;1211;-73
2021/12/17 03:31:30;;;;;;;;;;;;;;;3.51;100.00;102886.56;4997634;28;1344;-74
2021/12/17 03:34:12;;;;;;;;;;;;;;;3.52;100.00;102884.75;4997713;28;1252;-74
2021/12/17 03:36:39;;;;;;;;;;;;;;;3.53;100.00;102894.59;5012731;28;1953;-77
2021/12/17 03:39:06;;;;;;;;;;;;;;;3.55;100.00;102894.56;5017407;28;1215;-76
2021/12/17 03:41:36;;;;;;;;;;;;;;;3.53;100.00;102891.91;5017163;28;1184;-75
2021/12/17 03:44:07;;;;;;;;;;;;;;;3.54;100.00;102891.00;5017160;28;1149;-76
2021/12/17 03:46:52;;;;;;;;;;;;;;;3.53;100.00;102899.97;5034338;28;1964;-74
2021/12/17 03:49:21;;;;;;;;;;;;;;;3.52;100.00;102893.69;5016360;28;1228;-76
2021/12/17 03:51:52;;;;;;;;;;;;;;;3.49;100.00;102885.69;5017214;28;1128;-75
2021/12/17 03:54:22;;;;;;;;;;;;;;;3.51;100.00;102889.25;5016907;28;1154;-76
2021/12/17 03:56:49;;;;;;;;;;;;;;;3.47;100.00;102886.63;5016150;28;1324;-76
2021/12/17 03:59:17;;;;;;;;;;;;;;;3.51;100.00;102891.94;5016880;28;1210;-74
2021/12/17 04:01:43;;;;;;;;;;;;;;;3.50;100.00;102887.47;5017040;28;1165;-76
2021/12/17 04:04:09;;;;;;;;;;;;;;;3.50;100.00;102886.56;5017083;28;1121;-76
2021/12/17 04:06:39;;;;;;;;;;;;;;;3.45;100.00;102889.34;4997948;28;1927;-75
2021/12/17 04:09:32;;;;;;;;;;;;;;;3.39;100.00;102876.00;4996921;28;1181;-75
2021/12/17 04:12:16;;;;;;;;;;;;;;;3.39;100.00;102881.38;4997026;28;1291;-75
2021/12/17 04:15:09;;;;;;;;;;;;;;;3.38;100.00;102884.09;5020572;28;1406;-76
2021/12/17 04:17:42;;;;;;;;;;;;;;;3.39;100.00;102893.94;5016880;28;1370;-76
2021/12/17 04:20:09;;;;;;;;;;;;;;;3.37;100.00;102885.00;5016430;28;1302;-75
2021/12/17 04:22:36;;;;;;;;;;;;;;;3.36;100.00;102886.81;5016642;28;1275;-75
2021/12/17 04:25:03;;;;;;;;;;;;;;;3.37;100.00;102882.31;5014043;28;1470;-76
2021/12/17 04:27:29;;;;;;;;;;;;;;;3.31;100.00;102876.16;5016578;28;1987;-75
2021/12/17 04:29:57;;;;;;;;;;;;;;;3.35;100.00;102883.25;5016046;28;1081;-74
2021/12/17 04:32:25;;;;;;;;;;;;;;;3.38;100.00;102887.69;5016381;28;1371;-73
2021/12/17 04:34:52;;;;;;;;;;;;;;;3.35;100.00;102887.72;5008151;28;1463;-74
2021/12/17 04:37:23;;;;;;;;;;;;;;;3.36;100.00;102889.50;4996706;28;1369;-75
2021/12/17 04:39:56;;;;;;;;;;;;;;;3.34;100.00;102883.25;4996503;28;2325;-77
2021/12/17 04:42:32;;;;;;;;;;;;;;;3.35;100.00;102887.72;4996768;28;1293;-76
2021/12/17 04:45:00;;;;;;;;;;;;;;;3.35;100.00;102890.41;4997078;28;1455;-77
2021/12/17 04:58:44;;;;;;;;;;;;;;;3.39;100.00;102886.75;4978814;28;1253;-75
2021/12/17 05:01:14;;;;;;;;;;;;;;;3.39;100.00;102884.06;4977778;28;1367;-77
2021/12/17 05:03:44;;;;;;;;;;;;;;;3.39;100.00;102878.69;4986558;28;1370;-75
2021/12/17 05:06:11;;;;;;;;;;;;;;;3.38;100.00;102887.69;5015760;28;1432;-76
2021/12/17 05:08:56;;;;;;;;;;;;;;;3.32;100.00;102890.47;5016764;28;1954;-74
2021/12/17 05:11:38;;;;;;;;;;;;;;;3.33;100.00;102889.56;5016712;28;1148;-77
2021/12/17 05:19:44;;;;;;;;;;;;;;;3.35;100.00;102890.41;5027036;28;2014;-75
2021/12/17 05:22:12;;;;;;;;;;;;;;;3.34;100.00;102892.22;5018023;28;1361;-77
2021/12/17 05:24:39;;;;;;;;;;;;;;;3.30;100.00;102895.84;5035311;28;1166;-75
2021/12/17 05:27:07;;;;;;;;;;;;;;;3.31;100.00;102897.63;5035982;28;1930;-75
2021/12/17 05:29:42;;;;;;;;;;;;;;;3.31;100.00;102904.78;5035667;28;1394;-76
2021/12/17 05:32:09;;;;;;;;;;;;;;;3.33;100.00;102900.28;5035772;28;1138;-74
2021/12/17 05:34:38;;;;;;;;;;;;;;;3.35;100.00;102901.13;5035429;28;1162;-76
2021/12/17 05:37:09;;;;;;;;;;;;;;;3.32;100.00;102894.00;5035105;28;1342;-76
2021/12/17 05:39:36;;;;;;;;;;;;;;;3.33;100.00;102900.28;5034763;28;1105;-76
2021/12/17 05:42:04;;;;;;;;;;;;;;;3.39;100.00;102899.28;5034763;28;1152;-74
2021/12/17 05:44:40;;;;;;;;;;;;;;;3.35;100.00;102898.44;5035101;28;1237;-76
2021/12/17 05:47:07;;;;;;;;;;;;;;;3.31;100.00;102904.78;5034837;28;1981;-75
2021/12/17 05:49:34;;;;;;;;;;;;;;;3.31;100.00;102905.69;5034735;28;1124;-73
2021/12/17 05:52:04;;;;;;;;;;;;;;;3.35;100.00;102911.88;5034996;28;1231;-76
2021/12/17 05:54:32;;;;;;;;;;;;;;;3.31;100.00;102915.53;5035235;28;1169;-73
2021/12/17 05:56:59;;;;;;;;;;;;;;;3.35;100.00;102914.56;5022755;28;1449;-75
2021/12/17 05:59:34;;;;;;;;;;;;;;;3.38;100.00;102924.38;5014563;28;1137;-75
2021/12/17 06:02:03;;;;;;;;;;;;;;;3.37;100.00;102927.94;5014874;28;1235;-76
2021/12/17 06:04:31;;;;;;;;;;;;;;;3.35;100.00;102925.28;5014926;28;1153;-75
2021/12/17 06:07:05;;;;;;;;;;;;;;;3.40;100.00;102934.19;5014873;28;1407;-76
2021/12/17 06:09:32;;;;;;;;;;;;;;;3.40;100.00;102928.81;5030944;28;2036;-73
2021/12/17 06:12:01;;;;;;;;;;;;;;;3.45;100.00;102932.31;5001155;28;1518;-75
2021/12/17 06:14:29;;;;;;;;;;;;;;;3.50;100.00;102934.91;4995111;28;1495;-74
2021/12/17 06:16:56;;;;;;;;;;;;;;;3.49;100.00;102938.53;4995496;28;1317;-76
2021/12/17 06:19:30;;;;;;;;;;;;;;;3.46;100.00;102933.19;4998463;28;1529;-75
2021/12/17 06:21:58;;;;;;;;;;;;;;;3.44;100.00;102925.16;5010820;28;1480;-74
2021/12/17 06:24:27;;;;;;;;;;;;;;;3.45;100.00;102932.31;5014862;28;1659;-75
2021/12/17 06:26:55;;;;;;;;;;;;;;;3.50;100.00;102937.59;5015098;28;1324;-76
2021/12/17 06:29:21;;;;;;;;;;;;;;;3.45;100.00;102944.84;5014110;28;1914;-77
2021/12/17 06:31:54;;;;;;;;;;;;;;;3.46;100.00;102950.19;5014446;28;1511;-75
2021/12/17 06:34:21;;;;;;;;;;;;;;;3.46;100.00;102941.22;5015217;28;1266;-77
2021/12/17 06:36:47;;;;;;;;;;;;;;;3.47;100.00;102941.19;5014423;28;1585;-77
2021/12/17 06:39:14;;;;;;;;;;;;;;;3.50;100.00;102940.28;5018020;28;1578;-76
2021/12/17 06:41:42;;;;;;;;;;;;;;;3.45;100.00;102937.69;5016031;28;1324;-76
2021/12/17 06:44:11;;;;;;;;;;;;;;;3.51;100.00;102936.69;5011571;28;1273;-76
2021/12/17 06:46:52;;;;;;;;;;;;;;;3.49;100.00;102935.84;5004515;28;1583;-74
2021/12/17 06:49:25;;;;;;;;;;;;;;;3.49;100.00;102944.78;5011322;28;1993;-74
2021/12/17 06:55:03;;;;;;;;;;;;;;;3.48;100.00;102953.72;5022677;28;1407;-76
2021/12/17 06:58:36;;;;;;;;;;;;;;;3.48;100.00;102958.22;5019835;28;1396;-77
2021/12/17 07:01:21;;;;;;;;;;;;;;;3.43;100.00;102950.22;5047389;28;1239;-75
2021/12/17 07:21:33;;;;;;;;;;;;;;;3.50;100.00;102977.88;5013307;28;1188;-77
2021/12/17 07:24:46;;;;;;;;;;;;;;;3.49;100.00;102971.63;5014961;28;1528;-77
2021/12/17 07:33:02;;;;;;;;;;;;;;;3.50;100.00;102956.38;5045260;28;2255;-77
2021/12/17 07:35:46;;;;;;;;;;;;;;;3.52;100.00;102952.75;5017975;28;1200;-77
2021/12/17 07:41:03;;;;;;;;;;;;;;;3.54;100.00;102933.06;5014119;28;1523;-76
2021/12/17 07:43:37;;;;;;;;;;;;;;;3.57;100.00;102927.63;5002365;28;1516;-77
2021/12/17 07:46:13;;;;;;;;;;;;;;;3.54;100.00;102922.31;5017812;28;1427;-76
2021/12/17 07:48:40;;;;;;;;;;;;;;;3.56;100.00;102912.44;5020553;28;1993;-77
2021/12/17 07:51:12;;;;;;;;;;;;;;;3.59;100.00;102923.13;5020991;28;1368;-77
2021/12/17 07:54:05;;;;;;;;;;;;;;;3.56;100.00;102929.44;5030783;28;1542;-72
2021/12/17 07:56:37;;;;;;;;;;;;;;;3.59;100.00;102939.25;5017013;28;1423;-76
2021/12/17 07:59:09;;;;;;;;;;;;;;;3.62;100.00;102941.88;5017301;28;1212;-76
2021/12/17 08:01:37;;;;;;;;;;;;;;;3.59;100.00;102932.06;5017155;28;1621;-78
2021/12/17 08:04:04;;;;;;;;;;;;;;;3.57;100.00;102931.22;5017650;28;1218;-77
2021/12/17 08:06:50;;;;;;;;;;;;;;;3.61;100.00;102940.13;5007249;28;1476;-75
2021/12/17 08:09:21;;;;;;;;;;;;;;;3.65;100.00;102939.16;5017031;28;1979;-74
2021/12/17 08:11:55;;;;;;;;;;;;;;;3.67;100.00;102938.22;5017330;28;1145;-74
2021/12/17 08:14:22;;;;;;;;;;;;;;;3.63;100.00;102933.78;5017146;28;1125;-73
2021/12/17 08:16:58;;;;;;;;;;;;;;;3.63;100.00;102941.84;5016673;28;1523;-76
2021/12/17 08:24:59;;;;;;;;;;;;;;;3.64;100.00;102932.88;5016099;28;1566;-75
2021/12/17 08:27:43;;;;;;;;;;;;;;;3.66;100.00;102939.13;5018341;28;1406;-75
2021/12/17 08:30:24;;;;;;;;;;;;;;;3.71;100.00;102949.78;5006933;28;1393;-76
2021/12/17 08:33:01;;;;;;;;;;;;;;;3.71;100.00;102940.84;5008557;28;1520;-74
2021/12/17 08:35:28;;;;;;;;;;;;;;;3.74;100.00;102938.09;5015778;28;1527;-74
2021/12/17 08:38:03;;;;;;;;;;;;;;;3.77;100.00;102944.31;5014491;28;1510;-76
2021/12/17 08:40:30;;;;;;;;;;;;;;;3.76;100.00;102944.34;5013623;28;1488;-75
2021/12/17 08:42:58;;;;;;;;;;;;;;;3.78;100.00;102943.41;5015425;28;1527;-74
2021/12/17 08:45:26;;;;;;;;;;;;;;;3.81;100.00;102943.34;5015866;28;1215;-73
2021/12/17 08:48:07;;;;;;;;;;;;;;;3.83;100.00;102946.88;5015152;28;1906;-75
2021/12/17 08:50:53;;;;;;;;;;;;;;;3.88;100.00;102951.31;5015365;28;1576;-76
2021/12/17 08:53:19;;;;;;;;;;;;;;;3.93;100.00;102955.69;5012059;28;1723;-76
2021/12/17 08:55:46;;;;;;;;;;;;;;;3.98;100.00;102966.34;5006910;28;1595;-75
2021/12/17 08:58:14;;;;;;;;;;;;;;;3.95;100.00;102972.66;5031915;28;1376;-78
2021/12/17 09:00:43;;;;;;;;;;;;;;;3.93;100.00;102968.22;5011863;28;1547;-76
2021/12/17 09:03:11;;;;;;;;;;;;;;;3.99;100.00;102970.81;4996171;28;1113;-75
2021/12/17 09:05:42;;;;;;;;;;;;;;;4.02;100.00;102973.44;5022624;28;1578;-76
2021/12/17 09:08:11;;;;;;;;;;;;;;;4.07;100.00;102967.97;5014648;28;1981;-75
2021/12/17 09:10:52;;;;;;;;;;;;;;;4.11;100.00;102959.81;5014370;28;1555;-76
2021/12/17 09:13:19;;;;;;;;;;;;;;;4.11;100.00;102967.88;5015410;28;1564;-75
2021/12/17 09:15:48;;;;;;;;;;;;;;;4.12;100.00;102975.03;5014287;28;1981;-75
2021/12/17 09:18:28;;;;;;;;;;;;;;;4.07;100.00;102974.22;5014772;28;1353;-76
2021/12/17 09:21:04;;;;;;;;;;;;;;;4.09;100.00;102976.88;5014750;28;1540;-75
2021/12/17 09:23:57;;;;;;;;;;;;;;;4.16;100.00;102973.19;5014998;28;1511;-75
2021/12/17 09:26:24;;;;;;;;;;;;;;;4.19;100.00;102970.44;5013598;28;1364;-76
2021/12/17 09:28:51;;;;;;;;;;;;;;;4.22;100.00;102970.38;5014207;28;1894;-74
2021/12/17 09:31:17;;;;;;;;;;;;;;;4.28;100.00;102969.41;5014682;28;1106;-76
2021/12/17 09:33:46;;;;;;;;;;;;;;;4.23;100.00;102969.47;5014266;28;1283;-77
2021/12/17 09:36:13;;;;;;;;;;;;;;;4.26;100.00;102966.75;5011392;28;1529;-76
2021/12/17 09:38:40;;;;;;;;;;;;;;;4.28;100.00;102969.41;5011375;28;1583;-75
2021/12/17 09:41:06;;;;;;;;;;;;;;;4.25;100.00;102966.75;4999069;28;1142;-76
2021/12/17 09:43:35;;;;;;;;;;;;;;;4.26;100.00;102963.16;5013898;28;1230;-76
2021/12/17 09:46:03;;;;;;;;;;;;;;;4.29;100.00;102976.53;5014221;28;1335;-75
2021/12/17 09:48:29;;;;;;;;;;;;;;;4.31;100.00;102977.38;5014378;28;1975;-74
2021/12/17 09:50:57;;;;;;;;;;;;;;;4.25;100.00;102972.13;5013958;28;1145;-76
2021/12/17 09:53:24;;;;;;;;;;;;;;;4.28;100.00;102972.97;5014676;28;1297;-76
2021/12/17 09:55:51;;;;;;;;;;;;;;;4.35;100.00;102971.03;5013382;28;1287;-76
2021/12/17 09:58:18;;;;;;;;;;;;;;;4.36;100.00;102973.69;5017080;28;1216;-76
2021/12/17 10:00:45;;;;;;;;;;;;;;;4.38;100.00;102979.03;5014599;28;1602;-75
2021/12/17 10:03:11;;;;;;;;;;;;;;;4.40;100.00;102979.91;5010908;28;1500;-76
2021/12/17 10:05:40;;;;;;;;;;;;;;;4.44;100.00;102972.69;5015791;28;1523;-76
2021/12/17 10:08:11;;;;;;;;;;;;;;;4.47;100.00;102976.16;5013509;28;1426;-75
2021/12/17 10:10:40;;;;;;;;;;;;;;;4.52;100.00;102982.34;5013462;28;1918;-75
2021/12/17 10:13:07;;;;;;;;;;;;;;;4.51;100.00;102982.38;5013862;28;1558;-76
2021/12/17 10:15:35;;;;;;;;;;;;;;;4.46;100.00;102977.09;5010524;28;1207;-75
2021/12/17 10:18:02;;;;;;;;;;;;;;;4.47;100.00;102975.28;5013080;28;1516;-76
2021/12/17 10:20:29;;;;;;;;;;;;;;;4.43;100.00;102966.38;5010933;28;1496;-74
2021/12/17 10:22:57;;;;;;;;;;;;;;;4.48;100.00;102966.31;5014141;28;1129;-76
2021/12/17 10:25:25;;;;;;;;;;;;;;;4.50;100.00;102961.78;5013560;28;1452;-76
2021/12/17 10:27:55;;;;;;;;;;;;;;;4.57;100.00;102971.50;5030596;28;1487;-77
2021/12/17 10:30:22;;;;;;;;;;;;;;;4.60;100.00;102963.38;5013627;28;1977;-76
2021/12/17 10:32:50;;;;;;;;;;;;;;;4.49;100.00;102957.31;5013772;28;1264;-76
2021/12/17 10:35:18;;;;;;;;;;;;;;;4.55;100.00;102951.81;5013850;28;1495;-75
2021/12/17 10:37:45;;;;;;;;;;;;;;;4.58;100.00;102953.56;5010178;28;1429;-76
2021/12/17 10:40:23;;;;;;;;;;;;;;;4.58;100.00;102965.19;5029932;28;1554;-75
2021/12/17 10:42:59;;;;;;;;;;;;;;;4.57;100.00;102966.13;5013806;28;1196;-75
2021/12/17 10:45:28;;;;;;;;;;;;;;;4.64;100.00;102974.97;5011870;28;1472;-76
2021/12/17 10:48:02;;;;;;;;;;;;;;;4.64;100.00;102958.81;5012725;28;1535;-74
2021/12/17 10:50:29;;;;;;;;;;;;;;;4.72;100.00;102956.84;5013967;28;1985;-75
2021/12/17 10:52:56;;;;;;;;;;;;;;;4.73;100.00;102958.63;5010513;28;1594;-76
2021/12/17 10:55:23;;;;;;;;;;;;;;;4.75;100.00;102962.16;4998990;28;1517;-74
2021/12/17 10:57:58;;;;;;;;;;;;;;;4.81;100.00;102962.03;5014094;28;1496;-73
2021/12/17 11:00:25;;;;;;;;;;;;;;;4.79;100.00;102961.16;5016360;28;1551;-76
2021/12/17 11:02:51;;;;;;;;;;;;;;;4.77;100.00;102963.03;5017671;28;1343;-76
2021/12/17 11:05:19;;;;;;;;;;;;;;;4.78;100.00;102963.91;5015814;28;1535;-74
2021/12/17 11:07:46;;;;;;;;;;;;;;;4.80;100.00;102964.78;5016905;28;1409;-74
2021/12/17 11:10:13;;;;;;;;;;;;;;;4.83;100.00;102968.25;5016312;28;1923;-73
2021/12/17 11:12:41;;;;;;;;;;;;;;;4.91;100.00;102959.16;5017566;28;1550;-75
2021/12/17 11:15:18;;;;;;;;;;;;;;;4.91;100.00;102960.03;5017412;28;1288;-75
2021/12/17 11:17:45;;;;;;;;;;;;;;;4.98;100.00;102963.47;5016892;28;1602;-76
2021/12/17 11:20:13;;;;;;;;;;;;;;;4.91;100.00;102951.06;5016847;28;1880;-75
2021/12/17 11:22:40;;;;;;;;;;;;;;;4.95;100.00;102952.78;5039094;28;2020;-73
2021/12/17 11:25:07;;;;;;;;;;;;;;;4.86;100.00;102954.75;5024700;28;1664;-74
2021/12/17 11:27:34;;;;;;;;;;;;;;;4.82;100.00;102962.91;5014916;28;1684;-76
2021/12/17 11:30:01;;;;;;;;;;;;;;;4.84;100.00;102958.41;5016778;28;1977;-75
2021/12/17 11:32:29;;;;;;;;;;;;;;;4.91;100.00;102956.47;5016461;28;1783;-75
2021/12/17 11:34:56;;;;;;;;;;;;;;;4.93;100.00;102954.59;5010222;28;1356;-75
2021/12/17 11:37:23;;;;;;;;;;;;;;;4.91;100.00;102956.47;5017244;28;1317;-75
2021/12/17 11:39:53;;;;;;;;;;;;;;;4.83;100.00;102965.56;5015292;28;1622;-75
2021/12/17 11:42:29;;;;;;;;;;;;;;;4.82;100.00;102958.44;5016415;28;1476;-75
2021/12/17 11:47:39;;;;;;;;;;;;;;;4.92;100.00;102966.28;5015974;28;1539;-75
2021/12/17 11:50:07;;;;;;;;;;;;;;;4.93;100.00;102968.06;5015898;28;1906;-75
2021/12/17 11:52:40;;;;;;;;;;;;;;;4.97;100.00;102967.97;5016793;28;1574;-75
2021/12/17 11:55:23;;;;;;;;;;;;;;;4.95;100.00;102966.25;5016174;28;1523;-74
2021/12/17 11:57:52;;;;;;;;;;;;;;;4.97;100.00;102978.75;5015238;28;1523;-75
2021/12/17 12:00:21;;;;;;;;;;;;;;;4.90;100.00;102977.09;5016069;28;1476;-75
2021/12/17 12:02:50;;;;;;;;;;;;;;;4.89;100.00;102969.06;5016591;28;1624;-75
2021/12/17 12:05:33;;;;;;;;;;;;;;;4.82;100.00;102966.50;5015968;28;1323;-75
2021/12/17 12:08:23;;;;;;;;;;;;;;;4.88;100.00;102965.50;5012544;28;1491;-75
2021/12/17 12:11:03;;;;;;;;;;;;;;;4.92;100.00;102964.50;5004826;28;1997;-76
2021/12/17 12:13:40;;;;;;;;;;;;;;;4.93;100.00;102960.00;5030313;28;1605;-76
2021/12/17 12:16:07;;;;;;;;;;;;;;;4.84;100.00;102963.78;5010741;28;1539;-76
2021/12/17 12:18:44;;;;;;;;;;;;;;;4.87;100.00;102955.63;5005321;28;1301;-75
2021/12/17 12:21:11;;;;;;;;;;;;;;;4.90;100.00;102955.56;5015137;28;1500;-75
2021/12/17 12:23:48;;;;;;;;;;;;;;;4.90;100.00;102952.88;5033924;28;1489;-76
2021/12/17 12:26:29;;;;;;;;;;;;;;;4.90;100.00;102962.75;5006419;28;1504;-79
2021/12/17 12:29:02;;;;;;;;;;;;;;;4.86;100.00;102959.22;5005128;28;1361;-75
2021/12/17 12:31:47;;;;;;;;;;;;;;;4.83;100.00;102953.94;5003534;28;1504;-77
2021/12/17 12:34:16;;;;;;;;;;;;;;;4.88;100.00;102951.13;4998362;28;1529;-73
2021/12/17 12:36:47;;;;;;;;;;;;;;;4.88;100.00;102943.03;5015572;28;1459;-74
2021/12/17 12:39:14;;;;;;;;;;;;;;;4.86;100.00;102938.63;5015311;28;1566;-74
2021/12/17 12:41:42;;;;;;;;;;;;;;;4.85;100.00;102944.91;5015643;28;1566;-74
2021/12/17 12:44:09;;;;;;;;;;;;;;;4.84;100.00;102945.81;5014909;28;1464;-76
2021/12/17 12:46:48;;;;;;;;;;;;;;;4.83;100.00;102941.34;5015090;28;1394;-76
2021/12/17 12:49:30;;;;;;;;;;;;;;;4.82;100.00;102934.22;5005083;28;1914;-74
2021/12/17 12:54:51;;;;;;;;;;;;;;;4.92;100.00;102933.97;5163552;27;1319;-73
2021/12/17 12:57:23;;;;;;;;;;;;;;;4.93;100.00;102938.47;5145640;27;1316;-73
2021/12/17 12:59:51;;;;;;;;;;;;;;;4.84;100.00;102935.06;5128477;28;903;-72
2021/12/17 13:02:18;;;;;;;;;;;;;;;4.83;100.00;102930.59;5111790;28;1175;-72
2021/12/17 13:04:44;;;;;;;;;;;;;;;4.90;100.00;102935.84;5111976;28;1319;-73
2021/12/17 13:07:11;;;;;;;;;;;;;;;4.88;100.00;102943.03;5128985;28;1372;-73
2021/12/17 13:09:42;;;;;;;;;;;;;;;4.92;100.00;102948.34;5111263;28;1280;-73
2021/12/17 13:12:10;;;;;;;;;;;;;;;4.91;100.00;102956.47;5111710;28;1136;-74
2021/12/17 13:14:41;;;;;;;;;;;;;;;4.96;100.00;102965.31;5111562;28;2006;-73
2021/12/17 13:17:29;;;;;;;;;;;;;;;4.96;100.00;102958.13;5111656;28;1309;-74
2021/12/17 13:22:54;;;;;;;;;;;;;;;4.85;100.00;102963.75;5111692;28;1295;-74
2021/12/17 13:25:24;;;;;;;;;;;;;;;4.82;100.00;102955.75;5104809;28;1923;-73
2021/12/17 13:27:56;;;;;;;;;;;;;;;4.80;100.00;102954.88;5099087;28;1302;-75
2021/12/17 13:30:26;;;;;;;;;;;;;;;4.81;100.00;102951.28;5111331;28;1144;-73
2021/12/17 13:32:53;;;;;;;;;;;;;;;4.82;100.00;102942.28;5111207;28;1910;-73
2021/12/17 13:35:21;;;;;;;;;;;;;;;4.82;100.00;102947.69;5102807;28;1099;-73
2021/12/17 13:37:52;;;;;;;;;;;;;;;4.90;100.00;102960.06;5090987;28;1300;-73
2021/12/17 13:40:23;;;;;;;;;;;;;;;4.92;100.00;102947.44;5090730;28;1268;-72
2021/12/17 13:42:49;;;;;;;;;;;;;;;4.89;100.00;102953.81;5091851;28;1209;-73
2021/12/17 13:45:18;;;;;;;;;;;;;;;4.92;100.00;102944.75;5091294;28;1086;-73
2021/12/17 13:47:45;;;;;;;;;;;;;;;4.92;100.00;102959.13;5106266;28;2271;-73
2021/12/17 13:50:13;;;;;;;;;;;;;;;4.88;100.00;102957.41;5110801;28;1230;-74
2021/12/17 13:52:45;;;;;;;;;;;;;;;4.84;100.00;102971.84;5111030;28;1980;-74
2021/12/17 13:55:13;;;;;;;;;;;;;;;4.80;100.00;102971.03;5111018;28;1276;-74
2021/12/17 13:57:41;;;;;;;;;;;;;;;4.82;100.00;102965.59;5111082;28;1494;-73
2021/12/17 14:00:09;;;;;;;;;;;;;;;4.85;100.00;102977.19;5110793;28;1124;-75
2021/12/17 14:02:40;;;;;;;;;;;;;;;4.90;100.00;102986.97;5129435;27;894;-73
2021/12/17 14:05:08;;;;;;;;;;;;;;;4.87;100.00;102979.84;5103217;28;1254;-74
2021/12/17 14:07:36;;;;;;;;;;;;;;;4.86;100.00;102984.38;5096950;28;1380;-73
2021/12/17 14:10:05;;;;;;;;;;;;;;;4.83;100.00;102978.16;5096832;28;1136;-73
2021/12/17 14:12:33;;;;;;;;;;;;;;;4.79;100.00;102979.13;5096806;28;1246;-75
2021/12/17 14:15:01;;;;;;;;;;;;;;;4.74;100.00;102983.72;5097184;28;1983;-73
2021/12/17 14:17:33;;;;;;;;;;;;;;;4.69;100.00;102979.31;5099675;28;1416;-72
2021/12/17 14:20:06;;;;;;;;;;;;;;;4.66;100.00;102984.78;5096248;28;1316;-73
2021/12/17 14:22:34;;;;;;;;;;;;;;;4.73;100.00;102976.56;5113646;28;1315;-72
2021/12/17 14:25:00;;;;;;;;;;;;;;;4.73;100.00;102977.47;5096188;28;1371;-72
2021/12/17 14:27:45;;;;;;;;;;;;;;;4.75;100.00;102978.31;5096765;28;1392;-74
2021/12/17 14:30:12;;;;;;;;;;;;;;;4.73;100.00;102984.63;5095649;28;1502;-74
2021/12/17 14:32:42;;;;;;;;;;;;;;;4.66;100.00;102978.50;5096463;28;1144;-73
2021/12/17 14:35:10;;;;;;;;;;;;;;;4.67;100.00;102985.66;5096102;28;1981;-74
2021/12/17 14:37:50;;;;;;;;;;;;;;;4.69;100.00;102999.97;5095646;28;1440;-74
2021/12/17 14:40:27;;;;;;;;;;;;;;;4.68;100.00;102987.44;5095608;28;1420;-73
2021/12/17 14:42:56;;;;;;;;;;;;;;;4.66;100.00;102990.16;5095386;28;1332;-75
2021/12/17 14:45:31;;;;;;;;;;;;;;;4.65;100.00;102991.06;5096118;28;1357;-75
2021/12/17 14:48:14;;;;;;;;;;;;;;;4.67;100.00;102982.97;5095497;28;1680;-74
2021/12/17 15:02:10;;;;;;;;;;;;;;;4.61;100.00;102985.75;5093467;28;1521;-74
2021/12/17 15:04:36;;;;;;;;;;;;;;;4.60;100.00;102990.28;5092206;28;1599;-74
2021/12/17 15:07:04;;;;;;;;;;;;;;;4.62;100.00;102992.94;5116272;27;1488;-75
2021/12/17 15:09:32;;;;;;;;;;;;;;;4.62;100.00;102992.94;5089863;28;1436;-74
2021/12/17 15:12:00;;;;;;;;;;;;;;;4.63;100.00;102992.88;5095812;28;1342;-75
2021/12/17 15:14:27;;;;;;;;;;;;;;;4.61;100.00;102993.84;5095350;28;1973;-75
2021/12/17 15:16:53;;;;;;;;;;;;;;;4.57;100.00;102993.03;5094246;28;1304;-75
2021/12/17 15:19:20;;;;;;;;;;;;;;;4.56;100.00;102982.28;5094869;28;1511;-72
2021/12/17 15:21:47;;;;;;;;;;;;;;;4.54;100.00;102979.63;5095697;28;1345;-73
2021/12/17 15:24:14;;;;;;;;;;;;;;;4.51;100.00;102977.00;5095085;28;1570;-74
2021/12/17 15:26:41;;;;;;;;;;;;;;;4.50;100.00;102972.53;5095304;28;1486;-73
2021/12/17 15:29:07;;;;;;;;;;;;;;;4.50;100.00;102980.59;5095022;28;1602;-72
2021/12/17 15:31:34;;;;;;;;;;;;;;;4.52;100.00;102982.34;5095022;28;1475;-73
2021/12/17 15:34:00;;;;;;;;;;;;;;;4.53;100.00;102977.88;5095871;28;1971;-73
2021/12/17 15:36:26;;;;;;;;;;;;;;;4.53;100.00;102977.88;5095221;28;1488;-73
2021/12/17 15:38:53;;;;;;;;;;;;;;;4.54;100.00;102976.94;5094063;28;1562;-72
2021/12/17 15:41:21;;;;;;;;;;;;;;;4.52;100.00;102984.16;5092310;28;1729;-73
2021/12/17 15:43:47;;;;;;;;;;;;;;;4.48;100.00;102977.94;5093059;28;1329;-74
2021/12/17 15:46:14;;;;;;;;;;;;;;;4.50;100.00;102994.06;5084182;28;1508;-73